KMKO/MKO METAR and TAF weather

Enter ICAO airport designator
Station Type Date Time Source
KMKO METAR 2019/02/21 10:53 UTC NOAA

KMKO 211053Z AUTO 09004KT 10SM CLR 02/02 A3009 RMK AO2 SLP189 T00170017 $


Station Type Date Time Source
KMKO Decoded METAR 2019/02/21 10:53 UTC NOAA

MUSKOGEE DAVIS FIELD, OK, United States (KMKO) 35-39N 95-22W 185M
Feb 21, 2019 - 05:53 AM EST / 2019.02.21 1053 UTC
Wind: from the E (090 degrees) at 5 MPH (4 KT):0
Visibility: 10 mile(s):0
Sky conditions: clear
Temperature: 35.1 F (1.7 C)
Dew Point: 35.1 F (1.7 C)
Relative Humidity: 100%
Pressure (altimeter): 30.09 in. Hg (1018 hPa)
ob: KMKO 211053Z AUTO 09004KT 10SM CLR 02/02 A3009 RMK AO2 SLP189 T00170017
cycle: 11

Station Type Date Time Source
KMKO TAF UTC NOAA

Error!


Example: see airport list